sensor_id;sensor_type;location;lat;lon;timestamp;temperature;humidity
48860;DHT22;34679;51.436;-2.518;2022-11-03T00:00:55;11.60;99.90
48860;DHT22;34679;51.436;-2.518;2022-11-03T00:03:21;11.60;99.90
48860;DHT22;34679;51.436;-2.518;2022-11-03T00:05:46;11.60;99.90
48860;DHT22;34679;51.436;-2.518;2022-11-03T00:08:38;11.60;99.90
48860;DHT22;34679;51.436;-2.518;2022-11-03T00:11:10;11.60;99.90
48860;DHT22;34679;51.436;-2.518;2022-11-03T00:13:38;11.60;99.90
48860;DHT22;34679;51.436;-2.518;2022-11-03T00:16:04;11.60;99.90
48860;DHT22;34679;51.436;-2.518;2022-11-03T00:18:31;11.70;99.90
48860;DHT22;34679;51.436;-2.518;2022-11-03T00:21:00;11.70;99.90
48860;DHT22;34679;51.436;-2.518;2022-11-03T00:23:32;11.60;99.90
48860;DHT22;34679;51.436;-2.518;2022-11-03T00:26:22;11.70;99.90
48860;DHT22;34679;51.436;-2.518;2022-11-03T00:28:53;11.70;99.90
48860;DHT22;34679;51.436;-2.518;2022-11-03T00:31:21;11.60;99.90
48860;DHT22;34679;51.436;-2.518;2022-11-03T00:33:48;11.60;99.90
48860;DHT22;34679;51.436;-2.518;2022-11-03T00:36:16;11.60;99.90
48860;DHT22;34679;51.436;-2.518;2022-11-03T00:38:43;11.60;99.90
48860;DHT22;34679;51.436;-2.518;2022-11-03T00:41:10;11.60;99.90
48860;DHT22;34679;51.436;-2.518;2022-11-03T00:43:36;11.60;99.90
48860;DHT22;34679;51.436;-2.518;2022-11-03T00:46:03;11.60;99.90
48860;DHT22;34679;51.436;-2.518;2022-11-03T00:48:33;11.60;99.90
48860;DHT22;34679;51.436;-2.518;2022-11-03T00:51:12;11.50;99.90
48860;DHT22;34679;51.436;-2.518;2022-11-03T00:53:46;11.50;99.90
48860;DHT22;34679;51.436;-2.518;2022-11-03T00:56:14;11.50;99.90
48860;DHT22;34679;51.436;-2.518;2022-11-03T00:58:41;11.50;99.90
48860;DHT22;34679;51.436;-2.518;2022-11-03T01:01:36;11.50;99.90
48860;DHT22;34679;51.436;-2.518;2022-11-03T01:04:05;11.50;99.90
48860;DHT22;34679;51.436;-2.518;2022-11-03T01:06:51;11.50;99.90
48860;DHT22;34679;51.436;-2.518;2022-11-03T01:14:31;11.40;99.90
48860;DHT22;34679;51.436;-2.518;2022-11-03T01:16:58;11.40;99.90
48860;DHT22;34679;51.436;-2.518;2022-11-03T01:19:23;11.30;99.90
48860;DHT22;34679;51.436;-2.518;2022-11-03T01:21:51;11.40;99.90
48860;DHT22;34679;51.436;-2.518;2022-11-03T01:24:16;11.40;99.90
48860;DHT22;34679;51.436;-2.518;2022-11-03T01:26:42;11.40;99.90
48860;DHT22;34679;51.436;-2.518;2022-11-03T01:29:08;11.40;99.90
48860;DHT22;34679;51.436;-2.518;2022-11-03T01:31:34;11.30;99.90
48860;DHT22;34679;51.436;-2.518;2022-11-03T01:34:00;11.20;99.90
48860;DHT22;34679;51.436;-2.518;2022-11-03T01:36:26;11.20;99.90
48860;DHT22;34679;51.436;-2.518;2022-11-03T01:38:53;11.10;99.90
48860;DHT22;34679;51.436;-2.518;2022-11-03T01:41:23;11.10;99.90
48860;DHT22;34679;51.436;-2.518;2022-11-03T01:46:48;11.00;99.90
48860;DHT22;34679;51.436;-2.518;2022-11-03T01:49:43;10.90;99.90
48860;DHT22;34679;51.436;-2.518;2022-11-03T01:52:27;10.90;99.90
48860;DHT22;34679;51.436;-2.518;2022-11-03T01:54:59;10.80;99.90
48860;DHT22;34679;51.436;-2.518;2022-11-03T01:57:35;10.70;99.90
48860;DHT22;34679;51.436;-2.518;2022-11-03T02:00:03;10.70;99.90
48860;DHT22;34679;51.436;-2.518;2022-11-03T02:02:29;10.60;99.90
48860;DHT22;34679;51.436;-2.518;2022-11-03T02:04:57;10.60;99.90
48860;DHT22;34679;51.436;-2.518;2022-11-03T02:10:12;10.50;99.90
48860;DHT22;34679;51.436;-2.518;2022-11-03T02:12:38;10.40;99.90
48860;DHT22;34679;51.436;-2.518;2022-11-03T02:15:08;10.40;99.90
48860;DHT22;34679;51.436;-2.518;2022-11-03T02:17:35;10.40;99.90
48860;DHT22;34679;51.436;-2.518;2022-11-03T02:20:05;10.40;99.90
48860;DHT22;34679;51.436;-2.518;2022-11-03T02:25:39;10.30;99.90
48860;DHT22;34679;51.436;-2.518;2022-11-03T02:28:06;10.30;99.90
48860;DHT22;34679;51.436;-2.518;2022-11-03T02:33:28;10.30;99.90
48860;DHT22;34679;51.436;-2.518;2022-11-03T02:38:28;10.30;99.90
48860;DHT22;34679;51.436;-2.518;2022-11-03T02:40:59;10.20;99.90
48860;DHT22;34679;51.436;-2.518;2022-11-03T02:43:27;10.20;99.90
48860;DHT22;34679;51.436;-2.518;2022-11-03T02:45:54;10.20;99.90
48860;DHT22;34679;51.436;-2.518;2022-11-03T02:48:20;10.10;99.90
48860;DHT22;34679;51.436;-2.518;2022-11-03T02:50:47;10.10;99.90
48860;DHT22;34679;51.436;-2.518;2022-11-03T02:53:14;10.10;99.90
48860;DHT22;34679;51.436;-2.518;2022-11-03T02:56:00;10.10;99.90
48860;DHT22;34679;51.436;-2.518;2022-11-03T02:58:53;10.10;99.90
48860;DHT22;34679;51.436;-2.518;2022-11-03T03:01:36;10.10;99.90
48860;DHT22;34679;51.436;-2.518;2022-11-03T03:04:17;10.10;99.90
48860;DHT22;34679;51.436;-2.518;2022-11-03T03:06:59;10.00;99.90
48860;DHT22;34679;51.436;-2.518;2022-11-03T03:09:46;10.00;99.90
48860;DHT22;34679;51.436;-2.518;2022-11-03T03:12:16;10.10;99.90
48860;DHT22;34679;51.436;-2.518;2022-11-03T03:14:45;10.00;99.90
48860;DHT22;34679;51.436;-2.518;2022-11-03T03:19:52;10.00;99.90
48860;DHT22;34679;51.436;-2.518;2022-11-03T03:25:18;10.00;99.90
48860;DHT22;34679;51.436;-2.518;2022-11-03T03:27:50;10.00;99.90
48860;DHT22;34679;51.436;-2.518;2022-11-03T03:30:17;10.00;99.90
48860;DHT22;34679;51.436;-2.518;2022-11-03T03:32:47;9.90;99.90
48860;DHT22;34679;51.436;-2.518;2022-11-03T03:35:21;10.00;99.90
48860;DHT22;34679;51.436;-2.518;2022-11-03T03:37:50;9.90;99.90
48860;DHT22;34679;51.436;-2.518;2022-11-03T03:40:24;9.90;99.90
48860;DHT22;34679;51.436;-2.518;2022-11-03T03:42:51;10.00;99.90
48860;DHT22;34679;51.436;-2.518;2022-11-03T03:45:18;9.90;99.90
48860;DHT22;34679;51.436;-2.518;2022-11-03T03:47:45;9.90;99.90
48860;DHT22;34679;51.436;-2.518;2022-11-03T03:50:11;9.90;99.90
48860;DHT22;34679;51.436;-2.518;2022-11-03T03:52:37;9.90;99.90
48860;DHT22;34679;51.436;-2.518;2022-11-03T03:55:03;9.90;99.90
48860;DHT22;34679;51.436;-2.518;2022-11-03T03:57:32;9.90;99.90
48860;DHT22;34679;51.436;-2.518;2022-11-03T03:59:57;9.90;99.90
48860;DHT22;34679;51.436;-2.518;2022-11-03T04:02:23;9.90;99.90
48860;DHT22;34679;51.436;-2.518;2022-11-03T04:04:49;9.90;99.90
48860;DHT22;34679;51.436;-2.518;2022-11-03T04:07:14;9.90;99.90
48860;DHT22;34679;51.436;-2.518;2022-11-03T04:09:59;9.90;99.90
48860;DHT22;34679;51.436;-2.518;2022-11-03T04:12:24;9.80;99.90
48860;DHT22;34679;51.436;-2.518;2022-11-03T04:15:12;9.80;99.90
48860;DHT22;34679;51.436;-2.518;2022-11-03T04:17:56;9.80;99.90
48860;DHT22;34679;51.436;-2.518;2022-11-03T04:20:40;9.80;99.90
48860;DHT22;34679;51.436;-2.518;2022-11-03T04:23:25;9.80;99.90
48860;DHT22;34679;51.436;-2.518;2022-11-03T04:25:53;9.80;99.90
48860;DHT22;34679;51.436;-2.518;2022-11-03T04:28:19;9.80;99.90
48860;DHT22;34679;51.436;-2.518;2022-11-03T04:30:45;9.80;99.90
48860;DHT22;34679;51.436;-2.518;2022-11-03T04:33:19;9.80;99.90
48860;DHT22;34679;51.436;-2.518;2022-11-03T04:35:46;9.80;99.90
48860;DHT22;34679;51.436;-2.518;2022-11-03T04:40:43;9.70;99.90
48860;DHT22;34679;51.436;-2.518;2022-11-03T04:43:13;9.70;99.90
48860;DHT22;34679;51.436;-2.518;2022-11-03T04:45:39;9.70;99.90
48860;DHT22;34679;51.436;-2.518;2022-11-03T04:48:15;9.70;99.90
48860;DHT22;34679;51.436;-2.518;2022-11-03T04:50:41;9.60;99.90
48860;DHT22;34679;51.436;-2.518;2022-11-03T04:53:12;9.60;99.90
48860;DHT22;34679;51.436;-2.518;2022-11-03T04:55:40;9.60;99.90
48860;DHT22;34679;51.436;-2.518;2022-11-03T04:58:33;9.60;99.90
48860;DHT22;34679;51.436;-2.518;2022-11-03T05:01:00;9.60;99.90
48860;DHT22;34679;51.436;-2.518;2022-11-03T05:03:29;9.50;99.90
48860;DHT22;34679;51.436;-2.518;2022-11-03T05:05:56;9.50;99.90
48860;DHT22;34679;51.436;-2.518;2022-11-03T05:08:23;9.50;99.90
48860;DHT22;34679;51.436;-2.518;2022-11-03T05:10:49;9.50;99.90
48860;DHT22;34679;51.436;-2.518;2022-11-03T05:15:43;9.50;99.90
48860;DHT22;34679;51.436;-2.518;2022-11-03T05:18:21;9.50;99.90
48860;DHT22;34679;51.436;-2.518;2022-11-03T05:20:51;9.50;99.90
48860;DHT22;34679;51.436;-2.518;2022-11-03T05:23:20;9.50;99.90
48860;DHT22;34679;51.436;-2.518;2022-11-03T05:25:49;9.50;99.90
48860;DHT22;34679;51.436;-2.518;2022-11-03T05:28:25;9.60;99.90
48860;DHT22;34679;51.436;-2.518;2022-11-03T05:30:53;9.50;99.90
48860;DHT22;34679;51.436;-2.518;2022-11-03T05:33:28;9.50;99.90
48860;DHT22;34679;51.436;-2.518;2022-11-03T05:35:57;9.50;99.90
48860;DHT22;34679;51.436;-2.518;2022-11-03T05:38:26;9.40;99.90
48860;DHT22;34679;51.436;-2.518;2022-11-03T05:40:53;9.50;99.90
48860;DHT22;34679;51.436;-2.518;2022-11-03T05:43:20;9.40;99.90
48860;DHT22;34679;51.436;-2.518;2022-11-03T05:45:49;9.50;99.90
48860;DHT22;34679;51.436;-2.518;2022-11-03T05:48:29;9.50;99.90
48860;DHT22;34679;51.436;-2.518;2022-11-03T05:50:56;9.50;99.90
48860;DHT22;34679;51.436;-2.518;2022-11-03T05:53:30;9.60;99.90
48860;DHT22;34679;51.436;-2.518;2022-11-03T05:55:59;9.60;99.90
48860;DHT22;34679;51.436;-2.518;2022-11-03T05:58:40;9.60;99.90
48860;DHT22;34679;51.436;-2.518;2022-11-03T06:01:33;9.60;99.90
48860;DHT22;34679;51.436;-2.518;2022-11-03T06:04:19;9.60;99.90
48860;DHT22;34679;51.436;-2.518;2022-11-03T06:06:51;9.40;99.90
48860;DHT22;34679;51.436;-2.518;2022-11-03T06:09:22;9.40;99.90
48860;DHT22;34679;51.436;-2.518;2022-11-03T06:11:56;9.40;99.90
48860;DHT22;34679;51.436;-2.518;2022-11-03T06:14:24;9.40;99.90
48860;DHT22;34679;51.436;-2.518;2022-11-03T06:16:51;9.40;99.90
48860;DHT22;34679;51.436;-2.518;2022-11-03T06:19:38;9.30;99.90
48860;DHT22;34679;51.436;-2.518;2022-11-03T06:22:23;9.30;99.90
48860;DHT22;34679;51.436;-2.518;2022-11-03T06:24:50;9.30;99.90
48860;DHT22;34679;51.436;-2.518;2022-11-03T06:27:21;9.30;99.90
48860;DHT22;34679;51.436;-2.518;2022-11-03T06:30:00;9.30;99.90
48860;DHT22;34679;51.436;-2.518;2022-11-03T06:32:26;9.30;99.90
48860;DHT22;34679;51.436;-2.518;2022-11-03T06:34:57;9.20;99.90
48860;DHT22;34679;51.436;-2.518;2022-11-03T06:37:30;9.20;99.90
48860;DHT22;34679;51.436;-2.518;2022-11-03T06:40:25;9.20;99.90
48860;DHT22;34679;51.436;-2.518;2022-11-03T06:42:51;9.20;99.90
48860;DHT22;34679;51.436;-2.518;2022-11-03T06:45:23;9.30;99.90
48860;DHT22;34679;51.436;-2.518;2022-11-03T06:47:50;9.30;99.90
48860;DHT22;34679;51.436;-2.518;2022-11-03T06:50:23;9.30;99.90
48860;DHT22;34679;51.436;-2.518;2022-11-03T06:52:50;9.30;99.90
48860;DHT22;34679;51.436;-2.518;2022-11-03T06:55:27;9.30;99.90
48860;DHT22;34679;51.436;-2.518;2022-11-03T06:57:59;9.30;99.90
48860;DHT22;34679;51.436;-2.518;2022-11-03T07:00:28;9.20;99.90
48860;DHT22;34679;51.436;-2.518;2022-11-03T07:05:42;9.20;99.90
48860;DHT22;34679;51.436;-2.518;2022-11-03T07:08:22;9.20;99.90
48860;DHT22;34679;51.436;-2.518;2022-11-03T07:11:05;9.30;99.90
48860;DHT22;34679;51.436;-2.518;2022-11-03T07:13:34;9.30;99.90
48860;DHT22;34679;51.436;-2.518;2022-11-03T07:16:00;9.30;99.90
48860;DHT22;34679;51.436;-2.518;2022-11-03T07:18:39;9.30;99.90
48860;DHT22;34679;51.436;-2.518;2022-11-03T07:24:11;9.30;99.90
48860;DHT22;34679;51.436;-2.518;2022-11-03T07:26:37;9.30;99.90
48860;DHT22;34679;51.436;-2.518;2022-11-03T07:29:03;9.30;99.90
48860;DHT22;34679;51.436;-2.518;2022-11-03T07:31:30;9.30;99.90
48860;DHT22;34679;51.436;-2.518;2022-11-03T07:33:57;9.30;99.90
48860;DHT22;34679;51.436;-2.518;2022-11-03T07:36:26;9.40;99.90
48860;DHT22;34679;51.436;-2.518;2022-11-03T07:38:53;9.30;99.90
48860;DHT22;34679;51.436;-2.518;2022-11-03T07:41:25;9.40;99.90
48860;DHT22;34679;51.436;-2.518;2022-11-03T07:43:58;9.30;99.90
48860;DHT22;34679;51.436;-2.518;2022-11-03T07:46:24;9.30;99.90
48860;DHT22;34679;51.436;-2.518;2022-11-03T07:48:56;9.40;99.90
48860;DHT22;34679;51.436;-2.518;2022-11-03T07:51:35;9.40;99.90
48860;DHT22;34679;51.436;-2.518;2022-11-03T07:56:44;9.40;99.90
48860;DHT22;34679;51.436;-2.518;2022-11-03T07:59:26;9.40;99.90
48860;DHT22;34679;51.436;-2.518;2022-11-03T08:01:53;9.30;99.90
48860;DHT22;34679;51.436;-2.518;2022-11-03T08:04:35;9.20;99.90
48860;DHT22;34679;51.436;-2.518;2022-11-03T08:07:01;9.20;99.90
48860;DHT22;34679;51.436;-2.518;2022-11-03T08:09:26;9.20;99.90
48860;DHT22;34679;51.436;-2.518;2022-11-03T08:11:52;9.10;99.90
48860;DHT22;34679;51.436;-2.518;2022-11-03T08:14:18;9.10;99.90
48860;DHT22;34679;51.436;-2.518;2022-11-03T08:16:44;9.10;99.90
48860;DHT22;34679;51.436;-2.518;2022-11-03T08:19:10;9.10;99.90
48860;DHT22;34679;51.436;-2.518;2022-11-03T08:21:35;9.20;99.90
48860;DHT22;34679;51.436;-2.518;2022-11-03T08:24:01;9.20;99.90
48860;DHT22;34679;51.436;-2.518;2022-11-03T08:26:27;9.20;99.90
48860;DHT22;34679;51.436;-2.518;2022-11-03T08:28:53;9.30;99.90
48860;DHT22;34679;51.436;-2.518;2022-11-03T08:31:18;9.30;99.90
48860;DHT22;34679;51.436;-2.518;2022-11-03T08:33:44;9.40;99.90
48860;DHT22;34679;51.436;-2.518;2022-11-03T08:36:10;9.40;99.90
48860;DHT22;34679;51.436;-2.518;2022-11-03T08:38:37;9.40;99.90
48860;DHT22;34679;51.436;-2.518;2022-11-03T08:41:03;9.40;99.90
48860;DHT22;34679;51.436;-2.518;2022-11-03T08:43:29;9.40;99.90
48860;DHT22;34679;51.436;-2.518;2022-11-03T08:45:54;9.40;99.90
48860;DHT22;34679;51.436;-2.518;2022-11-03T08:48:21;9.50;99.90
48860;DHT22;34679;51.436;-2.518;2022-11-03T08:50:48;9.40;99.90
48860;DHT22;34679;51.436;-2.518;2022-11-03T08:53:15;9.40;99.90
48860;DHT22;34679;51.436;-2.518;2022-11-03T08:55:41;9.40;99.90
48860;DHT22;34679;51.436;-2.518;2022-11-03T08:58:07;9.40;99.90
48860;DHT22;34679;51.436;-2.518;2022-11-03T09:00:33;9.50;99.90
48860;DHT22;34679;51.436;-2.518;2022-11-03T09:03:00;9.50;99.90
48860;DHT22;34679;51.436;-2.518;2022-11-03T09:05:26;9.50;99.90
48860;DHT22;34679;51.436;-2.518;2022-11-03T09:07:51;9.50;99.90
48860;DHT22;34679;51.436;-2.518;2022-11-03T09:10:17;9.50;99.90
48860;DHT22;34679;51.436;-2.518;2022-11-03T09:12:43;9.50;99.90
48860;DHT22;34679;51.436;-2.518;2022-11-03T09:15:09;9.50;99.90
48860;DHT22;34679;51.436;-2.518;2022-11-03T09:17:36;9.60;99.90
48860;DHT22;34679;51.436;-2.518;2022-11-03T09:20:02;9.70;99.90
48860;DHT22;34679;51.436;-2.518;2022-11-03T09:22:28;9.70;99.90
48860;DHT22;34679;51.436;-2.518;2022-11-03T09:24:54;9.70;99.90
48860;DHT22;34679;51.436;-2.518;2022-11-03T09:27:20;9.80;99.90
48860;DHT22;34679;51.436;-2.518;2022-11-03T09:29:45;9.70;99.90
48860;DHT22;34679;51.436;-2.518;2022-11-03T09:32:11;9.70;99.90
48860;DHT22;34679;51.436;-2.518;2022-11-03T09:34:36;9.80;99.90
48860;DHT22;34679;51.436;-2.518;2022-11-03T09:37:02;9.80;99.90
48860;DHT22;34679;51.436;-2.518;2022-11-03T09:39:28;9.80;99.90
48860;DHT22;34679;51.436;-2.518;2022-11-03T09:41:55;9.80;99.90
48860;DHT22;34679;51.436;-2.518;2022-11-03T09:44:23;9.90;99.90
48860;DHT22;34679;51.436;-2.518;2022-11-03T09:46:49;9.90;99.90
48860;DHT22;34679;51.436;-2.518;2022-11-03T09:49:16;10.00;99.90
48860;DHT22;34679;51.436;-2.518;2022-11-03T09:51:44;10.00;99.90
48860;DHT22;34679;51.436;-2.518;2022-11-03T09:54:13;10.10;99.90
48860;DHT22;34679;51.436;-2.518;2022-11-03T09:56:41;10.20;99.90
48860;DHT22;34679;51.436;-2.518;2022-11-03T09:59:20;10.20;99.90
48860;DHT22;34679;51.436;-2.518;2022-11-03T10:01:49;10.10;99.90
48860;DHT22;34679;51.436;-2.518;2022-11-03T10:04:16;10.20;99.90
48860;DHT22;34679;51.436;-2.518;2022-11-03T10:06:43;10.20;99.90
48860;DHT22;34679;51.436;-2.518;2022-11-03T10:09:14;10.20;99.90
48860;DHT22;34679;51.436;-2.518;2022-11-03T10:11:40;10.20;99.90
48860;DHT22;34679;51.436;-2.518;2022-11-03T10:14:08;10.30;99.90
48860;DHT22;34679;51.436;-2.518;2022-11-03T10:16:37;10.40;99.90
48860;DHT22;34679;51.436;-2.518;2022-11-03T10:19:04;10.60;99.90
48860;DHT22;34679;51.436;-2.518;2022-11-03T10:21:30;10.80;99.90
48860;DHT22;34679;51.436;-2.518;2022-11-03T10:23:58;11.00;99.90
48860;DHT22;34679;51.436;-2.518;2022-11-03T10:26:24;11.10;99.90
48860;DHT22;34679;51.436;-2.518;2022-11-03T10:29:01;11.30;99.90
48860;DHT22;34679;51.436;-2.518;2022-11-03T10:31:39;11.50;99.90
48860;DHT22;34679;51.436;-2.518;2022-11-03T10:34:32;11.70;99.90
48860;DHT22;34679;51.436;-2.518;2022-11-03T10:37:21;11.70;99.90
48860;DHT22;34679;51.436;-2.518;2022-11-03T10:39:49;11.60;99.90
48860;DHT22;34679;51.436;-2.518;2022-11-03T10:42:26;11.50;99.90
48860;DHT22;34679;51.436;-2.518;2022-11-03T10:47:34;11.60;99.90
48860;DHT22;34679;51.436;-2.518;2022-11-03T10:50:20;11.70;99.90
48860;DHT22;34679;51.436;-2.518;2022-11-03T10:52:48;11.70;99.90
48860;DHT22;34679;51.436;-2.518;2022-11-03T10:55:14;11.80;99.90
48860;DHT22;34679;51.436;-2.518;2022-11-03T10:57:40;11.80;99.90
48860;DHT22;34679;51.436;-2.518;2022-11-03T11:00:06;11.50;99.90
48860;DHT22;34679;51.436;-2.518;2022-11-03T11:02:34;11.60;99.90
48860;DHT22;34679;51.436;-2.518;2022-11-03T11:05:07;11.70;99.90
48860;DHT22;34679;51.436;-2.518;2022-11-03T11:07:42;11.70;99.90
48860;DHT22;34679;51.436;-2.518;2022-11-03T11:10:22;12.00;99.90
48860;DHT22;34679;51.436;-2.518;2022-11-03T11:15:47;12.20;99.90
48860;DHT22;34679;51.436;-2.518;2022-11-03T11:31:27;12.50;99.90
48860;DHT22;34679;51.436;-2.518;2022-11-03T11:36:42;12.20;99.90
48860;DHT22;34679;51.436;-2.518;2022-11-03T11:52:32;12.20;99.90
48860;DHT22;34679;51.436;-2.518;2022-11-03T11:54:59;12.30;99.90
48860;DHT22;34679;51.436;-2.518;2022-11-03T11:57:26;12.40;99.90
48860;DHT22;34679;51.436;-2.518;2022-11-03T11:59:54;12.50;99.90
48860;DHT22;34679;51.436;-2.518;2022-11-03T12:02:23;12.50;99.90
48860;DHT22;34679;51.436;-2.518;2022-11-03T12:04:56;12.50;99.90
48860;DHT22;34679;51.436;-2.518;2022-11-03T12:07:35;12.70;99.90
48860;DHT22;34679;51.436;-2.518;2022-11-03T12:10:20;12.70;99.90
48860;DHT22;34679;51.436;-2.518;2022-11-03T12:12:47;12.70;99.90
48860;DHT22;34679;51.436;-2.518;2022-11-03T12:21:10;12.90;99.90
48860;DHT22;34679;51.436;-2.518;2022-11-03T12:23:45;12.80;99.90
48860;DHT22;34679;51.436;-2.518;2022-11-03T12:28:51;12.70;99.90
48860;DHT22;34679;51.436;-2.518;2022-11-03T12:31:17;12.50;99.90
48860;DHT22;34679;51.436;-2.518;2022-11-03T12:33:42;12.40;99.90
48860;DHT22;34679;51.436;-2.518;2022-11-03T12:36:08;12.30;99.90
48860;DHT22;34679;51.436;-2.518;2022-11-03T12:38:34;12.00;99.90
48860;DHT22;34679;51.436;-2.518;2022-11-03T12:41:00;11.80;99.90
48860;DHT22;34679;51.436;-2.518;2022-11-03T12:43:49;11.60;99.90
48860;DHT22;34679;51.436;-2.518;2022-11-03T12:46:19;11.40;99.90
48860;DHT22;34679;51.436;-2.518;2022-11-03T12:48:45;11.20;99.90
48860;DHT22;34679;51.436;-2.518;2022-11-03T12:51:16;11.00;99.90
48860;DHT22;34679;51.436;-2.518;2022-11-03T12:53:43;10.90;99.90
48860;DHT22;34679;51.436;-2.518;2022-11-03T12:56:10;10.80;99.90
48860;DHT22;34679;51.436;-2.518;2022-11-03T12:58:36;10.80;99.90
48860;DHT22;34679;51.436;-2.518;2022-11-03T13:01:03;10.70;99.90
48860;DHT22;34679;51.436;-2.518;2022-11-03T13:03:29;10.90;99.90
48860;DHT22;34679;51.436;-2.518;2022-11-03T13:05:56;11.10;99.90
48860;DHT22;34679;51.436;-2.518;2022-11-03T13:08:22;11.40;99.90
48860;DHT22;34679;51.436;-2.518;2022-11-03T13:10:47;11.50;99.90
48860;DHT22;34679;51.436;-2.518;2022-11-03T13:13:13;11.70;99.90
48860;DHT22;34679;51.436;-2.518;2022-11-03T13:15:39;11.60;99.90
48860;DHT22;34679;51.436;-2.518;2022-11-03T13:18:04;11.60;99.90
48860;DHT22;34679;51.436;-2.518;2022-11-03T13:20:31;11.50;99.90
48860;DHT22;34679;51.436;-2.518;2022-11-03T13:22:57;11.50;99.90
48860;DHT22;34679;51.436;-2.518;2022-11-03T13:25:23;11.30;99.90
48860;DHT22;34679;51.436;-2.518;2022-11-03T13:27:49;11.20;99.90
48860;DHT22;34679;51.436;-2.518;2022-11-03T13:30:25;11.00;99.90
48860;DHT22;34679;51.436;-2.518;2022-11-03T13:32:51;11.00;99.90
48860;DHT22;34679;51.436;-2.518;2022-11-03T13:35:17;11.00;99.90
48860;DHT22;34679;51.436;-2.518;2022-11-03T13:37:43;11.00;99.90
48860;DHT22;34679;51.436;-2.518;2022-11-03T13:40:13;11.00;99.90
48860;DHT22;34679;51.436;-2.518;2022-11-03T13:42:39;10.80;99.90
48860;DHT22;34679;51.436;-2.518;2022-11-03T13:45:05;10.70;99.90
48860;DHT22;34679;51.436;-2.518;2022-11-03T13:47:32;10.60;99.90
48860;DHT22;34679;51.436;-2.518;2022-11-03T13:49:57;10.60;99.90
48860;DHT22;34679;51.436;-2.518;2022-11-03T13:52:27;10.60;99.90
48860;DHT22;34679;51.436;-2.518;2022-11-03T13:54:53;10.70;99.90
48860;DHT22;34679;51.436;-2.518;2022-11-03T13:57:19;10.60;99.90
48860;DHT22;34679;51.436;-2.518;2022-11-03T13:59:45;10.50;99.90
48860;DHT22;34679;51.436;-2.518;2022-11-03T14:02:11;10.60;99.90
48860;DHT22;34679;51.436;-2.518;2022-11-03T14:04:37;10.50;99.90
48860;DHT22;34679;51.436;-2.518;2022-11-03T14:07:04;10.40;99.90
48860;DHT22;34679;51.436;-2.518;2022-11-03T14:09:30;10.50;99.90
48860;DHT22;34679;51.436;-2.518;2022-11-03T14:11:56;10.80;99.90
48860;DHT22;34679;51.436;-2.518;2022-11-03T14:14:40;11.20;99.90
48860;DHT22;34679;51.436;-2.518;2022-11-03T14:17:07;11.40;99.90
48860;DHT22;34679;51.436;-2.518;2022-11-03T14:19:32;11.60;99.90
48860;DHT22;34679;51.436;-2.518;2022-11-03T14:21:58;11.60;99.90
48860;DHT22;34679;51.436;-2.518;2022-11-03T14:24:24;11.60;99.90
48860;DHT22;34679;51.436;-2.518;2022-11-03T14:26:50;11.60;99.90
48860;DHT22;34679;51.436;-2.518;2022-11-03T14:29:15;11.50;99.90
48860;DHT22;34679;51.436;-2.518;2022-11-03T14:31:41;11.50;99.90
48860;DHT22;34679;51.436;-2.518;2022-11-03T14:34:06;11.40;99.90
48860;DHT22;34679;51.436;-2.518;2022-11-03T14:36:32;11.40;99.90
48860;DHT22;34679;51.436;-2.518;2022-11-03T14:38:58;11.20;99.90
48860;DHT22;34679;51.436;-2.518;2022-11-03T14:41:24;11.10;99.90
48860;DHT22;34679;51.436;-2.518;2022-11-03T14:44:08;11.10;99.90
48860;DHT22;34679;51.436;-2.518;2022-11-03T14:46:33;11.10;99.90
48860;DHT22;34679;51.436;-2.518;2022-11-03T14:48:59;11.00;99.90
48860;DHT22;34679;51.436;-2.518;2022-11-03T14:51:28;11.00;99.90
48860;DHT22;34679;51.436;-2.518;2022-11-03T14:53:54;11.00;99.90
48860;DHT22;34679;51.436;-2.518;2022-11-03T14:56:21;10.90;99.90
48860;DHT22;34679;51.436;-2.518;2022-11-03T14:58:47;10.80;99.90
48860;DHT22;34679;51.436;-2.518;2022-11-03T15:01:14;10.80;99.90
48860;DHT22;34679;51.436;-2.518;2022-11-03T15:03:41;10.70;99.90
48860;DHT22;34679;51.436;-2.518;2022-11-03T15:06:06;10.80;99.90
48860;DHT22;34679;51.436;-2.518;2022-11-03T15:08:32;10.70;99.90
48860;DHT22;34679;51.436;-2.518;2022-11-03T15:10:58;10.80;99.90
48860;DHT22;34679;51.436;-2.518;2022-11-03T15:13:24;10.90;99.90
48860;DHT22;34679;51.436;-2.518;2022-11-03T15:15:49;10.90;99.90
48860;DHT22;34679;51.436;-2.518;2022-11-03T15:18:15;10.90;99.90
48860;DHT22;34679;51.436;-2.518;2022-11-03T15:20:41;10.90;99.90
48860;DHT22;34679;51.436;-2.518;2022-11-03T15:23:07;10.70;99.90
48860;DHT22;34679;51.436;-2.518;2022-11-03T15:25:33;10.60;99.90
48860;DHT22;34679;51.436;-2.518;2022-11-03T15:27:58;10.50;99.90
48860;DHT22;34679;51.436;-2.518;2022-11-03T15:30:25;10.30;99.90
48860;DHT22;34679;51.436;-2.518;2022-11-03T15:32:51;10.20;99.90
48860;DHT22;34679;51.436;-2.518;2022-11-03T15:35:17;10.10;99.90
48860;DHT22;34679;51.436;-2.518;2022-11-03T15:37:43;10.10;99.90
48860;DHT22;34679;51.436;-2.518;2022-11-03T15:40:13;10.00;99.90
48860;DHT22;34679;51.436;-2.518;2022-11-03T15:42:39;9.90;99.90
48860;DHT22;34679;51.436;-2.518;2022-11-03T15:45:07;9.90;99.90
48860;DHT22;34679;51.436;-2.518;2022-11-03T15:47:33;9.80;99.90
48860;DHT22;34679;51.436;-2.518;2022-11-03T15:49:58;9.80;99.90
48860;DHT22;34679;51.436;-2.518;2022-11-03T15:52:24;9.80;99.90
48860;DHT22;34679;51.436;-2.518;2022-11-03T15:54:50;9.70;99.90
48860;DHT22;34679;51.436;-2.518;2022-11-03T15:57:15;9.80;99.90
48860;DHT22;34679;51.436;-2.518;2022-11-03T15:59:41;9.80;99.90
48860;DHT22;34679;51.436;-2.518;2022-11-03T16:02:07;9.90;99.90
48860;DHT22;34679;51.436;-2.518;2022-11-03T16:04:33;9.70;99.90
48860;DHT22;34679;51.436;-2.518;2022-11-03T16:06:59;9.70;99.90
48860;DHT22;34679;51.436;-2.518;2022-11-03T16:09:25;9.60;99.90
48860;DHT22;34679;51.436;-2.518;2022-11-03T16:11:50;9.60;99.90
48860;DHT22;34679;51.436;-2.518;2022-11-03T16:14:16;9.60;99.90
48860;DHT22;34679;51.436;-2.518;2022-11-03T16:16:42;9.60;99.90
48860;DHT22;34679;51.436;-2.518;2022-11-03T16:19:08;9.80;99.90
48860;DHT22;34679;51.436;-2.518;2022-11-03T16:21:35;9.80;99.90
48860;DHT22;34679;51.436;-2.518;2022-11-03T16:24:01;9.90;99.90
48860;DHT22;34679;51.436;-2.518;2022-11-03T16:26:27;9.80;99.90
48860;DHT22;34679;51.436;-2.518;2022-11-03T16:28:52;9.90;99.90
48860;DHT22;34679;51.436;-2.518;2022-11-03T16:31:18;9.90;99.90
48860;DHT22;34679;51.436;-2.518;2022-11-03T16:33:44;9.90;99.90
48860;DHT22;34679;51.436;-2.518;2022-11-03T16:36:09;9.90;99.90
48860;DHT22;34679;51.436;-2.518;2022-11-03T16:38:35;9.80;99.90
48860;DHT22;34679;51.436;-2.518;2022-11-03T16:41:00;9.80;99.90
48860;DHT22;34679;51.436;-2.518;2022-11-03T16:43:26;9.90;99.90
48860;DHT22;34679;51.436;-2.518;2022-11-03T16:45:52;9.80;99.90
48860;DHT22;34679;51.436;-2.518;2022-11-03T16:48:17;9.80;99.90
48860;DHT22;34679;51.436;-2.518;2022-11-03T16:50:45;9.80;99.90
48860;DHT22;34679;51.436;-2.518;2022-11-03T16:53:10;9.70;99.90
48860;DHT22;34679;51.436;-2.518;2022-11-03T16:55:36;9.70;99.90
48860;DHT22;34679;51.436;-2.518;2022-11-03T16:58:02;9.70;99.90